Time;durP1;ratioP1;P1;durP2;ratioP2;P2;SDS_P1;SDS_P2;PMS_P1;PMS_P2;Temp;Humidity;BMP_temperature;BMP_pressure;BME280_temperature;BME280_humidity;BME280_pressure;Samples;Min_cycle;Max_cycle;Signal;HPM_P1;HPM_P2
2023/01/17 00:02:22;;;;;;;25.70;12.60;;;;;;;6.37;74.32;99703.41;107515;1254;110181;-61
2023/01/17 00:10:27;;;;;;;18.50;13.00;;;;;;;6.26;74.74;99701.67;107594;1254;97692;-61
2023/01/17 00:12:57;;;;;;;23.50;13.20;;;;;;;6.21;74.50;99701.38;107526;1254;111241;-61
2023/01/17 00:15:27;;;;;;;24.60;14.30;;;;;;;6.18;74.84;99702.35;107480;1254;109735;-59
2023/01/17 00:17:56;;;;;;;19.40;12.60;;;;;;;6.15;74.95;99698.56;107504;1254;108012;-60
2023/01/17 00:26:10;;;;;;;28.40;13.60;;;;;;;6.08;75.38;99692.19;107429;1254;112565;-60
2023/01/17 01:33:52;;;;;;;21.50;13.00;;;;;;;5.97;76.03;99655.52;107456;1254;112274;-59
2023/01/17 01:36:20;;;;;;;27.10;15.70;;;;;;;5.97;76.13;99649.72;107585;1254;110449;-59
2023/01/17 01:38:49;;;;;;;23.50;13.90;;;;;;;5.96;76.05;99649.88;107520;1254;108547;-59
2023/01/17 01:41:17;;;;;;;24.70;14.80;;;;;;;5.97;76.29;99652.87;107466;1254;97875;-61
2023/01/17 01:43:49;;;;;;;22.90;13.70;;;;;;;5.95;76.38;99649.98;107411;1257;97857;-61
2023/01/17 01:46:30;;;;;;;24.20;14.70;;;;;;;5.93;76.15;99646.09;107450;1254;112483;-60
2023/01/17 01:49:16;;;;;;;26.00;15.20;;;;;;;5.93;76.34;99639.52;107513;1254;109706;-60
2023/01/17 01:51:52;;;;;;;27.90;15.80;;;;;;;5.92;76.45;99642.11;107445;1253;108030;-59
2023/01/17 01:54:25;;;;;;;26.60;15.70;;;;;;;5.90;76.62;99650.63;107505;1254;97825;-60
2023/01/17 01:56:57;;;;;;;23.80;14.10;;;;;;;5.92;76.68;99660.27;107255;1254;97965;-60
2023/01/17 01:59:26;;;;;;;24.90;14.00;;;;;;;5.92;76.50;99656.50;107473;1253;112210;-60
2023/01/17 02:01:57;;;;;;;24.50;14.90;;;;;;;5.94;76.51;99661.14;107526;1254;110264;-60
2023/01/17 02:04:27;;;;;;;20.00;13.40;;;;;;;5.95;76.30;99661.95;107500;1254;106857;-62
2023/01/17 02:07:02;;;;;;;26.50;15.50;;;;;;;5.95;76.34;99653.94;107501;1253;97951;-60
2023/01/17 02:09:31;;;;;;;24.40;15.60;;;;;;;5.96;76.28;99653.85;107448;1253;98338;-60
2023/01/17 02:12:02;;;;;;;24.40;14.80;;;;;;;5.97;76.19;99659.27;107576;1253;111760;-61
2023/01/17 02:14:31;;;;;;;22.80;14.50;;;;;;;5.99;76.02;99658.78;107549;1254;110393;-60
2023/01/17 02:17:05;;;;;;;23.80;13.90;;;;;;;6.00;75.94;99653.23;107566;1256;107721;-59
2023/01/17 02:19:55;;;;;;;22.90;14.00;;;;;;;6.00;75.76;99648.54;107482;1254;97838;-60
2023/01/17 02:23:08;;;;;;;29.60;14.10;;;;;;;6.00;75.76;99642.52;107443;1254;98396;-61
2023/01/17 02:25:55;;;;;;;25.20;14.20;;;;;;;5.99;75.75;99635.85;107540;1254;111719;-59
2023/01/17 02:28:46;;;;;;;26.30;15.80;;;;;;;6.00;75.67;99633.84;107565;1253;109682;-60
2023/01/17 02:31:39;;;;;;;24.40;14.60;;;;;;;6.00;75.61;99634.73;107464;1253;107663;-60
2023/01/17 02:34:26;;;;;;;22.60;14.50;;;;;;;6.00;75.46;99641.62;107471;1254;97858;-59
2023/01/17 02:37:03;;;;;;;21.90;14.50;;;;;;;6.01;75.58;99643.30;107489;1254;97740;-61
2023/01/17 02:39:42;;;;;;;24.30;14.10;;;;;;;6.02;75.55;99647.22;107486;1253;112392;-59
2023/01/17 02:42:18;;;;;;;23.50;15.40;;;;;;;6.02;75.56;99650.00;107513;1254;110421;-59
2023/01/17 02:44:47;;;;;;;22.20;14.60;;;;;;;6.02;75.46;99646.83;107505;1254;108313;-59
2023/01/17 02:47:24;;;;;;;26.40;15.60;;;;;;;6.01;75.42;99650.62;107551;1254;97904;-62
2023/01/17 02:50:07;;;;;;;25.60;15.50;;;;;;;6.01;75.37;99646.34;107509;1254;98402;-60
2023/01/17 02:52:37;;;;;;;25.70;15.50;;;;;;;6.01;75.45;99637.66;107573;1252;112581;-59
2023/01/17 02:55:24;;;;;;;23.50;13.80;;;;;;;5.99;75.48;99635.67;107558;1253;109237;-61
2023/01/17 02:57:59;;;;;;;21.80;14.70;;;;;;;5.97;75.56;99630.84;107504;1254;107140;-60
2023/01/17 03:00:28;;;;;;;23.80;15.00;;;;;;;5.95;75.65;99629.40;107460;1254;97814;-59
2023/01/17 03:03:14;;;;;;;23.10;15.50;;;;;;;5.93;75.51;99621.86;107439;1254;97860;-60
2023/01/17 03:05:53;;;;;;;33.30;17.20;;;;;;;5.91;75.61;99613.88;107429;1254;111882;-60
2023/01/17 03:08:22;;;;;;;25.30;15.20;;;;;;;5.90;75.76;99615.61;107435;1256;109664;-58
2023/01/17 03:10:51;;;;;;;25.30;15.70;;;;;;;5.89;75.53;99620.64;107537;1254;107614;-58
2023/01/17 03:13:20;;;;;;;28.00;15.80;;;;;;;5.88;75.69;99625.70;107537;1256;97720;-58
2023/01/17 03:15:48;;;;;;;25.20;15.30;;;;;;;5.90;76.04;99626.85;107533;1254;98364;-59
2023/01/17 03:18:17;;;;;;;25.60;15.60;;;;;;;5.88;75.62;99629.29;107478;1253;111750;-60
2023/01/17 03:20:45;;;;;;;23.60;16.00;;;;;;;5.85;75.51;99626.02;107505;1256;109760;-59
2023/01/17 03:23:14;;;;;;;26.80;15.90;;;;;;;5.79;75.11;99627.05;107533;1254;107814;-59
2023/01/17 03:25:43;;;;;;;25.00;16.80;;;;;;;5.71;75.15;99624.20;107522;1252;97845;-60
2023/01/17 03:28:12;;;;;;;26.50;17.10;;;;;;;5.64;74.88;99624.04;107562;1254;98379;-59
2023/01/17 03:30:40;;;;;;;33.40;18.00;;;;;;;5.56;75.01;99627.92;107559;1254;111974;-61
2023/01/17 03:33:08;;;;;;;29.20;18.90;;;;;;;5.48;75.07;99619.94;107383;1254;110143;-59
2023/01/17 03:35:37;;;;;;;31.30;19.90;;;;;;;5.38;75.43;99620.05;107410;1253;109457;-60
2023/01/17 03:38:05;;;;;;;35.40;19.80;;;;;;;5.31;75.47;99626.89;107414;1257;97845;-60
2023/01/17 03:40:33;;;;;;;33.20;19.50;;;;;;;5.23;75.38;99631.41;107575;1252;97746;-63
2023/01/17 03:43:02;;;;;;;30.90;19.30;;;;;;;5.17;75.60;99642.24;107546;1254;111965;-60
2023/01/17 03:45:31;;;;;;;29.50;19.10;;;;;;;5.10;75.59;99640.33;107522;1254;108823;-59
2023/01/17 03:47:59;;;;;;;33.00;19.70;;;;;;;5.03;75.52;99637.18;107497;1254;106804;-58
2023/01/17 03:50:27;;;;;;;33.10;20.10;;;;;;;4.97;75.73;99647.77;107553;1254;97844;-60
2023/01/17 03:52:56;;;;;;;36.30;19.50;;;;;;;4.92;75.71;99647.52;107570;1254;98373;-60
2023/01/17 03:55:24;;;;;;;31.10;18.80;;;;;;;4.89;75.98;99639.42;107537;1253;111682;-60
2023/01/17 03:57:53;;;;;;;31.50;19.10;;;;;;;4.88;76.84;99627.04;107557;1253;109692;-60
2023/01/17 04:00:21;;;;;;;33.10;18.00;;;;;;;4.89;77.10;99615.96;107499;1253;108388;-61
2023/01/17 04:02:50;;;;;;;29.60;16.40;;;;;;;4.91;77.16;99606.56;107564;1254;97851;-60
2023/01/17 04:05:19;;;;;;;28.70;18.90;;;;;;;4.91;77.37;99608.50;107593;1253;98403;-59
2023/01/17 04:07:47;;;;;;;31.40;18.60;;;;;;;4.92;77.90;99604.02;107608;1252;111844;-60
2023/01/17 04:10:16;;;;;;;31.80;17.80;;;;;;;4.92;78.40;99604.14;107552;1253;110098;-60
2023/01/17 04:12:44;;;;;;;24.70;15.60;;;;;;;4.94;78.56;99611.32;107431;1253;108090;-59
2023/01/17 04:15:12;;;;;;;24.30;15.70;;;;;;;4.95;78.50;99622.76;107467;1253;97823;-60
2023/01/17 04:17:41;;;;;;;26.90;16.00;;;;;;;5.05;78.89;99624.59;107414;1253;97916;-60
2023/01/17 04:20:17;;;;;;;32.30;16.80;;;;;;;5.14;78.94;99623.63;107562;1254;111391;-61
2023/01/17 04:22:46;;;;;;;26.80;16.40;;;;;;;5.19;78.97;99622.38;107564;1254;109891;-61
2023/01/17 04:25:14;;;;;;;36.60;19.20;;;;;;;5.21;78.82;99622.55;107575;1252;108202;-62
2023/01/17 04:27:43;;;;;;;27.40;15.90;;;;;;;5.21;78.77;99626.30;107552;1252;97806;-59
2023/01/17 04:30:12;;;;;;;27.80;17.40;;;;;;;5.20;79.03;99634.34;107526;1253;97730;-60
2023/01/17 04:32:40;;;;;;;24.60;16.60;;;;;;;5.18;78.67;99640.58;107515;1253;113362;-60
2023/01/17 04:35:09;;;;;;;28.70;17.50;;;;;;;5.19;78.87;99643.90;107454;1253;109789;-60
2023/01/17 04:37:37;;;;;;;28.70;15.90;;;;;;;5.17;78.51;99639.37;107428;1257;107721;-59
2023/01/17 04:40:07;;;;;;;28.80;17.40;;;;;;;5.16;78.70;99646.75;107405;1252;97877;-60
2023/01/17 04:42:35;;;;;;;24.00;15.00;;;;;;;5.14;78.59;99650.63;107581;1254;97746;-60
2023/01/17 04:45:05;;;;;;;25.10;16.40;;;;;;;5.11;78.64;99656.09;107423;1253;111711;-59
2023/01/17 04:47:33;;;;;;;25.40;15.90;;;;;;;5.13;79.13;99646.38;107418;1254;109139;-58
2023/01/17 04:50:01;;;;;;;25.20;16.10;;;;;;;5.12;78.91;99641.81;107567;1254;108187;-62
2023/01/17 04:52:30;;;;;;;25.40;15.60;;;;;;;5.13;79.14;99644.33;107536;1254;97835;-59
2023/01/17 04:54:58;;;;;;;26.50;16.40;;;;;;;5.22;79.58;99646.49;107496;1253;98354;-60
2023/01/17 04:57:27;;;;;;;26.20;15.10;;;;;;;5.28;79.44;99631.35;107556;1256;111681;-60
2023/01/17 04:59:55;;;;;;;29.00;15.70;;;;;;;5.33;79.18;99625.29;107531;1253;108796;-60
2023/01/17 05:02:24;;;;;;;26.70;15.40;;;;;;;5.39;79.11;99621.90;107399;1252;107796;-58
2023/01/17 05:04:53;;;;;;;19.70;13.60;;;;;;;5.47;78.63;99623.52;107463;1253;97979;-60
2023/01/17 05:07:21;;;;;;;26.00;14.90;;;;;;;5.51;78.33;99634.95;107548;1256;97821;-60
2023/01/17 05:09:50;;;;;;;24.80;14.90;;;;;;;5.55;78.25;99637.25;107437;1253;112414;-62
2023/01/17 05:12:19;;;;;;;26.90;16.80;;;;;;;5.61;77.83;99624.64;107561;1254;109806;-61
2023/01/17 05:14:47;;;;;;;25.90;14.70;;;;;;;5.66;77.68;99629.62;107465;1253;108172;-61
2023/01/17 05:17:15;;;;;;;21.80;14.80;;;;;;;5.69;77.72;99626.38;107575;1253;97830;-59
2023/01/17 05:19:45;;;;;;;24.40;15.30;;;;;;;5.71;77.42;99621.15;107408;1253;98384;-60
2023/01/17 05:22:14;;;;;;;28.30;16.30;;;;;;;5.73;77.45;99617.23;107454;1253;111470;-59
2023/01/17 05:24:44;;;;;;;24.30;15.60;;;;;;;5.74;77.42;99640.83;107558;1253;109191;-61
2023/01/17 05:27:13;;;;;;;25.70;15.40;;;;;;;5.76;77.48;99662.69;107578;1254;108585;-61
2023/01/17 05:29:42;;;;;;;28.70;15.90;;;;;;;5.78;77.41;99666.78;107504;1254;97914;-62
2023/01/17 05:32:10;;;;;;;22.40;15.10;;;;;;;5.80;77.26;99659.11;107396;1254;98476;-61
2023/01/17 05:34:38;;;;;;;25.00;16.10;;;;;;;5.81;77.43;99647.52;107592;1254;112893;-60
2023/01/17 05:37:07;;;;;;;25.90;15.00;;;;;;;5.83;77.61;99645.79;107576;1254;109679;-60
2023/01/17 05:39:35;;;;;;;25.70;16.40;;;;;;;5.84;77.40;99639.63;107583;1253;107832;-60
2023/01/17 05:42:03;;;;;;;27.70;15.70;;;;;;;5.85;77.46;99631.52;107640;1254;97810;-60
2023/01/17 05:44:32;;;;;;;27.90;16.20;;;;;;;5.86;77.55;99637.45;107589;1253;97915;-59
2023/01/17 05:47:01;;;;;;;22.70;15.30;;;;;;;5.87;77.64;99647.52;107559;1252;111837;-60
2023/01/17 05:49:29;;;;;;;28.70;14.90;;;;;;;5.88;77.59;99653.48;107607;1253;108848;-60
2023/01/17 05:51:57;;;;;;;29.00;16.50;;;;;;;5.89;77.54;99644.70;107591;1256;107846;-61
2023/01/17 05:54:25;;;;;;;26.90;16.80;;;;;;;5.90;77.47;99644.05;107617;1255;97938;-60
2023/01/17 05:56:53;;;;;;;24.50;15.80;;;;;;;5.91;77.48;99631.33;107631;1253;97733;-60
2023/01/17 05:59:22;;;;;;;26.70;16.80;;;;;;;5.92;77.34;99623.77;107660;1253;111596;-60
2023/01/17 06:02:04;;;;;;;25.00;16.10;;;;;;;5.94;77.38;99616.30;107625;1254;110357;-61
2023/01/17 06:04:33;;;;;;;23.90;16.60;;;;;;;5.96;77.34;99624.29;107611;1254;106181;-59
2023/01/17 06:07:01;;;;;;;28.10;18.30;;;;;;;5.99;77.56;99623.74;107582;1253;97837;-59
2023/01/17 06:09:29;;;;;;;52.40;22.70;;;;;;;6.02;77.51;99607.63;107423;1256;98531;-59
2023/01/17 06:11:58;;;;;;;42.00;19.80;;;;;;;6.03;77.13;99588.48;107610;1254;112201;-59
2023/01/17 06:14:26;;;;;;;41.10;20.10;;;;;;;6.04;77.18;99591.83;107660;1254;109109;-59
2023/01/17 06:16:54;;;;;;;31.30;17.20;;;;;;;6.06;77.25;99595.01;107623;1253;109032;-60
2023/01/17 06:19:22;;;;;;;31.30;17.10;;;;;;;6.04;77.34;99592.68;107656;1253;97813;-62
2023/01/17 06:21:50;;;;;;;28.90;17.80;;;;;;;6.05;77.57;99601.14;107612;1254;97760;-60
2023/01/17 06:24:19;;;;;;;29.50;17.40;;;;;;;6.08;77.44;99606.04;107619;1252;113000;-59
2023/01/17 06:26:47;;;;;;;28.10;17.10;;;;;;;6.13;77.59;99603.32;107529;1253;110690;-61
2023/01/17 06:29:17;;;;;;;24.50;15.60;;;;;;;6.17;77.82;99598.31;107568;1254;108705;-60
2023/01/17 06:31:48;;;;;;;25.80;16.20;;;;;;;6.22;77.90;99603.77;107624;1254;97838;-62
2023/01/17 06:34:17;;;;;;;27.80;18.00;;;;;;;6.28;77.73;99615.36;107414;1259;97776;-59
2023/01/17 06:36:45;;;;;;;33.60;17.30;;;;;;;6.33;77.76;99617.42;107588;1254;111379;-62
2023/01/17 06:39:13;;;;;;;28.30;16.50;;;;;;;6.35;77.75;99611.00;107585;1254;109703;-62
2023/01/17 06:41:42;;;;;;;34.40;18.30;;;;;;;6.36;77.56;99609.66;107637;1254;108749;-59
2023/01/17 06:44:10;;;;;;;34.10;19.10;;;;;;;6.36;77.59;99614.42;107587;1254;98042;-60
2023/01/17 06:46:39;;;;;;;31.70;18.00;;;;;;;6.40;77.68;99617.47;107629;1254;97918;-60
2023/01/17 06:49:08;;;;;;;29.50;16.80;;;;;;;6.47;77.78;99611.19;107665;1253;111714;-60
2023/01/17 06:51:36;;;;;;;35.20;19.00;;;;;;;6.53;77.81;99604.70;107591;1255;109932;-59
2023/01/17 06:54:04;;;;;;;30.30;18.10;;;;;;;6.60;77.52;99605.75;107558;1254;108512;-59
2023/01/17 06:56:32;;;;;;;30.70;18.50;;;;;;;6.66;77.20;99595.77;107594;1253;97841;-60
2023/01/17 06:59:02;;;;;;;27.60;16.50;;;;;;;6.70;77.01;99585.42;107664;1254;97697;-59
2023/01/17 07:01:31;;;;;;;28.00;17.20;;;;;;;6.76;77.06;99581.81;107580;1254;111324;-59
2023/01/17 07:03:59;;;;;;;28.80;19.10;;;;;;;6.85;76.91;99583.61;107639;1253;110126;-60
2023/01/17 07:06:28;;;;;;;22.20;14.30;;;;;;;6.92;77.01;99580.70;107561;1254;108284;-60
2023/01/17 07:08:57;;;;;;;34.40;17.40;;;;;;;6.98;76.57;99581.40;107585;1254;97733;-59
2023/01/17 07:11:26;;;;;;;21.90;14.60;;;;;;;7.04;76.82;99577.46;107593;1254;97911;-59
2023/01/17 07:13:54;;;;;;;26.80;15.30;;;;;;;7.10;75.94;99579.76;107619;1253;111804;-61
2023/01/17 07:16:23;;;;;;;22.10;15.30;;;;;;;7.06;74.79;99581.80;107570;1254;110116;-58
2023/01/17 07:18:53;;;;;;;27.30;16.10;;;;;;;6.98;75.06;99572.33;107622;1256;108314;-60
2023/01/17 07:21:22;;;;;;;23.80;15.40;;;;;;;6.99;75.38;99571.19;107476;1253;97844;-63
2023/01/17 07:23:50;;;;;;;24.90;16.10;;;;;;;6.99;75.35;99564.21;107607;1255;97710;-62
2023/01/17 07:26:19;;;;;;;22.70;14.30;;;;;;;7.00;74.63;99560.04;107641;1253;112058;-61
2023/01/17 07:28:47;;;;;;;20.20;13.30;;;;;;;7.01;73.67;99544.79;107540;1254;109417;-59
2023/01/17 07:31:15;;;;;;;25.50;14.70;;;;;;;7.03;73.62;99547.41;107568;1252;109013;-61
2023/01/17 07:33:44;;;;;;;20.80;14.10;;;;;;;7.05;73.70;99544.94;107510;1253;97867;-59
2023/01/17 07:36:12;;;;;;;19.00;13.00;;;;;;;7.10;73.75;99555.22;107606;1253;97739;-58
2023/01/17 07:38:42;;;;;;;19.80;12.70;;;;;;;7.15;73.33;99559.64;107600;1254;112178;-61
2023/01/17 07:41:11;;;;;;;22.20;12.90;;;;;;;7.19;73.33;99551.45;107638;1254;110584;-60
2023/01/17 07:43:39;;;;;;;19.30;13.10;;;;;;;7.23;73.42;99551.09;107568;1254;108132;-61
2023/01/17 07:46:08;;;;;;;17.30;11.50;;;;;;;7.26;72.36;99544.62;107564;1253;97834;-59
2023/01/17 07:48:36;;;;;;;17.90;12.00;;;;;;;7.27;72.63;99552.30;107621;1254;97742;-59
2023/01/17 07:51:05;;;;;;;19.00;11.80;;;;;;;7.29;72.81;99553.56;107604;1254;111819;-61
2023/01/17 07:53:34;;;;;;;17.00;11.40;;;;;;;7.29;72.25;99554.77;107604;1254;110559;-60
2023/01/17 07:56:06;;;;;;;21.20;10.20;;;;;;;7.31;72.15;99558.53;107597;1254;108606;-58
2023/01/17 07:58:35;;;;;;;20.10;12.40;;;;;;;7.35;72.41;99559.21;107590;1252;97890;-59
2023/01/17 08:01:07;;;;;;;19.30;11.70;;;;;;;7.38;71.48;99563.48;107568;1253;98476;-60
2023/01/17 08:03:38;;;;;;;15.80;11.50;;;;;;;7.38;70.49;99565.20;107592;1256;112342;-60
2023/01/17 08:06:18;;;;;;;17.50;11.60;;;;;;;7.40;69.80;99567.22;107615;1253;109709;-61
2023/01/17 08:08:47;;;;;;;21.40;12.60;;;;;;;7.40;69.26;99561.86;107598;1253;108650;-62
2023/01/17 08:11:15;;;;;;;20.50;11.80;;;;;;;7.38;69.29;99564.70;107558;1256;97945;-61
2023/01/17 08:13:44;;;;;;;22.50;12.40;;;;;;;7.37;69.29;99559.77;107505;1252;97990;-61
2023/01/17 08:16:14;;;;;;;17.80;11.70;;;;;;;7.37;69.24;99561.17;107610;1252;111340;-60
2023/01/17 08:18:42;;;;;;;24.60;12.80;;;;;;;7.38;69.34;99562.02;107664;1253;109324;-60
2023/01/17 08:21:15;;;;;;;18.70;11.50;;;;;;;7.41;69.00;99560.51;107564;1253;107597;-60
2023/01/17 08:23:51;;;;;;;20.30;12.00;;;;;;;7.42;68.58;99557.50;107593;1254;97954;-60
2023/01/17 08:26:21;;;;;;;19.70;12.30;;;;;;;7.45;68.56;99554.02;107622;1253;97826;-61
2023/01/17 08:28:59;;;;;;;22.90;12.20;;;;;;;7.49;68.64;99556.32;107637;1253;111139;-60
2023/01/17 08:31:30;;;;;;;19.80;11.50;;;;;;;7.55;68.62;99554.92;107555;1253;109309;-60
2023/01/17 08:33:59;;;;;;;18.60;10.70;;;;;;;7.61;68.56;99554.48;107539;1256;108574;-61
2023/01/17 08:36:29;;;;;;;18.60;12.40;;;;;;;7.69;68.84;99554.95;107584;1253;97953;-59
2023/01/17 08:38:59;;;;;;;20.30;12.10;;;;;;;7.79;69.03;99553.08;107584;1256;97771;-60
2023/01/17 08:41:27;;;;;;;24.80;12.60;;;;;;;7.90;69.24;99550.88;107617;1252;112266;-59
2023/01/17 08:43:56;;;;;;;20.80;13.00;;;;;;;8.00;69.45;99544.15;107597;1253;110540;-60
2023/01/17 08:46:25;;;;;;;23.40;14.20;;;;;;;8.12;68.87;99542.90;107618;1252;108731;-60
2023/01/17 08:48:57;;;;;;;21.50;13.60;;;;;;;8.24;69.10;99543.98;107594;1254;97816;-60
2023/01/17 08:51:27;;;;;;;20.90;13.30;;;;;;;8.42;69.37;99528.98;107613;1254;97818;-60
2023/01/17 08:53:55;;;;;;;22.50;13.60;;;;;;;8.64;68.81;99517.71;107632;1253;110425;-58
2023/01/17 08:56:24;;;;;;;20.10;12.90;;;;;;;8.90;67.99;99508.26;107586;1254;110563;-59
2023/01/17 08:58:53;;;;;;;21.20;13.70;;;;;;;9.28;67.82;99514.84;107578;1254;107827;-59
2023/01/17 09:01:22;;;;;;;17.50;11.90;;;;;;;9.48;67.40;99524.75;107528;1254;97763;-60
2023/01/17 09:03:51;;;;;;;23.50;13.10;;;;;;;9.53;66.64;99524.37;107613;1256;97848;-61
2023/01/17 09:06:20;;;;;;;17.60;11.80;;;;;;;9.91;66.17;99527.47;107628;1254;111957;-60
2023/01/17 09:08:51;;;;;;;24.30;12.40;;;;;;;10.36;63.44;99527.55;107624;1253;110013;-60
2023/01/17 09:11:19;;;;;;;19.90;12.50;;;;;;;10.45;64.13;99517.02;107541;1256;109720;-60
2023/01/17 09:13:47;;;;;;;21.70;11.40;;;;;;;10.55;61.28;99521.54;107614;1253;97827;-60
2023/01/17 09:16:16;;;;;;;16.20;10.00;;;;;;;10.57;59.05;99517.44;107594;1252;97845;-61
2023/01/17 09:18:44;;;;;;;14.60;10.10;;;;;;;10.59;58.32;99521.13;107506;1257;111462;-59
2023/01/17 09:21:15;;;;;;;14.40;10.70;;;;;;;10.73;57.79;99513.71;107590;1252;109546;-61
2023/01/17 09:23:44;;;;;;;18.40;10.40;;;;;;;11.00;57.40;99504.66;107605;1253;109178;-59
2023/01/17 09:26:25;;;;;;;16.70;9.70;;;;;;;11.05;56.31;99504.45;107613;1253;97860;-60
2023/01/17 09:28:54;;;;;;;14.80;9.70;;;;;;;10.95;57.47;99497.98;107649;1253;97711;-60
2023/01/17 09:31:25;;;;;;;17.60;10.30;;;;;;;11.12;57.81;99490.80;107646;1253;111866;-59
2023/01/17 09:33:55;;;;;;;16.80;10.30;;;;;;;11.30;56.91;99486.08;107647;1253;110090;-60
2023/01/17 09:36:32;;;;;;;16.80;10.00;;;;;;;11.59;56.46;99479.11;107634;1253;108538;-61
2023/01/17 09:39:01;;;;;;;15.40;10.10;;;;;;;11.58;56.87;99480.57;107646;1253;97838;-59
2023/01/17 09:41:46;;;;;;;18.10;10.00;;;;;;;11.63;56.58;99478.27;107634;1253;97826;-60
2023/01/17 09:44:40;;;;;;;13.80;9.40;;;;;;;11.78;57.89;99469.65;107569;1253;111242;-59
2023/01/17 09:47:31;;;;;;;14.30;8.10;;;;;;;11.92;57.97;99472.05;107576;1254;110269;-60
2023/01/17 09:50:07;;;;;;;15.70;8.90;;;;;;;12.04;57.23;99458.30;107454;1253;108264;-59
2023/01/17 09:52:35;;;;;;;13.10;8.60;;;;;;;12.24;57.00;99452.94;107484;1257;97947;-60
2023/01/17 09:55:04;;;;;;;13.80;8.50;;;;;;;12.48;57.04;99454.82;107478;1253;98368;-60
2023/01/17 09:58:00;;;;;;;16.20;9.10;;;;;;;12.52;57.27;99448.42;107454;1253;110936;-60
2023/01/17 10:00:53;;;;;;;13.20;9.00;;;;;;;12.61;57.67;99457.94;107450;1253;110181;-60
2023/01/17 10:03:41;;;;;;;11.90;8.20;;;;;;;12.66;57.09;99466.20;107450;1257;108668;-61
2023/01/17 10:06:10;;;;;;;13.80;7.40;;;;;;;12.62;57.27;99467.80;107460;1253;97736;-60
2023/01/17 10:08:39;;;;;;;13.60;8.40;;;;;;;12.51;56.14;99467.86;107593;1256;98386;-60
2023/01/17 10:11:32;;;;;;;11.70;7.70;;;;;;;12.35;56.59;99469.98;107611;1254;113141;-60
2023/01/17 10:14:19;;;;;;;11.40;7.60;;;;;;;12.48;53.63;99469.80;107617;1252;109647;-60
2023/01/17 10:17:00;;;;;;;14.20;7.10;;;;;;;12.52;52.84;99463.59;107586;1254;107735;-61
2023/01/17 10:20:06;;;;;;;11.70;7.70;;;;;;;12.46;52.15;99463.77;107575;1256;98470;-60
2023/01/17 10:23:12;;;;;;;12.90;7.50;;;;;;;12.39;52.07;99459.21;107565;1254;98717;-60
2023/01/17 10:26:07;;;;;;;10.10;6.80;;;;;;;12.36;52.98;99457.92;107593;1252;110960;-59
2023/01/17 10:28:38;;;;;;;12.10;7.50;;;;;;;12.60;53.28;99463.11;107577;1254;109573;-60
2023/01/17 10:31:14;;;;;;;10.80;7.10;;;;;;;12.66;53.91;99469.60;107570;1256;108308;-60
2023/01/17 10:33:56;;;;;;;15.00;7.80;;;;;;;12.72;53.20;99461.55;107605;1252;97941;-58
2023/01/17 10:36:48;;;;;;;15.30;7.70;;;;;;;12.66;53.85;99464.59;107588;1256;97982;-60
2023/01/17 10:39:19;;;;;;;10.20;6.60;;;;;;;12.59;54.24;99467.69;107619;1254;111055;-59
2023/01/17 10:42:13;;;;;;;12.20;7.10;;;;;;;12.50;52.91;99473.15;107612;1252;109044;-60
2023/01/17 10:45:04;;;;;;;12.80;7.10;;;;;;;12.34;51.84;99467.10;106864;1254;996284;-59
2023/01/17 10:47:36;;;;;;;13.10;7.70;;;;;;;12.14;51.93;99468.27;107558;1253;97952;-60
2023/01/17 10:50:12;;;;;;;13.80;7.30;;;;;;;11.97;52.88;99465.98;107608;1253;97937;-59
2023/01/17 10:52:42;;;;;;;12.30;7.90;;;;;;;11.85;52.89;99471.11;107604;1254;112218;-60
2023/01/17 10:55:42;;;;;;;11.30;7.20;;;;;;;11.72;53.63;99464.35;107604;1256;109709;-62
2023/01/17 10:58:12;;;;;;;10.70;6.90;;;;;;;11.57;53.83;99467.95;107571;1254;107762;-60
2023/01/17 11:01:00;;;;;;;11.10;7.20;;;;;;;11.47;54.41;99467.52;107604;1253;97832;-60
2023/01/17 11:03:29;;;;;;;13.90;7.20;;;;;;;11.41;54.36;99474.67;107586;1256;97711;-60
2023/01/17 11:06:15;;;;;;;8.90;6.70;;;;;;;11.34;54.71;99465.53;107610;1253;112181;-59
2023/01/17 11:08:57;;;;;;;13.20;6.70;;;;;;;11.32;54.86;99461.64;107548;1254;108498;-59
2023/01/17 11:11:32;;;;;;;12.20;6.90;;;;;;;11.44;54.99;99457.23;107586;1254;108477;-60
2023/01/17 11:14:05;;;;;;;11.50;6.80;;;;;;;11.68;55.33;99448.57;107635;1252;97829;-58
2023/01/17 11:16:34;;;;;;;20.10;7.30;;;;;;;11.81;54.65;99447.45;107596;1253;97718;-59
2023/01/17 11:19:20;;;;;;;10.30;6.70;;;;;;;11.88;54.52;99452.17;107592;1252;111713;-59
2023/01/17 11:21:51;;;;;;;9.80;6.60;;;;;;;11.89;53.78;99449.10;107570;1254;109476;-59
2023/01/17 11:24:32;;;;;;;10.60;6.60;;;;;;;11.90;54.77;99441.59;107600;1253;108496;-58
2023/01/17 11:27:04;;;;;;;18.10;7.90;;;;;;;12.16;54.12;99449.73;107578;1253;98041;-59
2023/01/17 11:29:39;;;;;;;14.30;7.30;;;;;;;12.23;53.07;99451.52;107622;1256;98329;-60
2023/01/17 11:32:20;;;;;;;8.70;6.50;;;;;;;12.21;53.47;99442.89;107610;1254;112639;-59
2023/01/17 11:35:17;;;;;;;15.70;6.40;;;;;;;12.24;53.09;99456.73;107587;1256;110708;-60
2023/01/17 11:38:10;;;;;;;13.60;7.30;;;;;;;12.20;52.48;99461.31;107613;1255;108107;-60
2023/01/17 11:40:41;;;;;;;16.10;7.10;;;;;;;12.09;52.54;99451.42;107458;1253;97848;-60
2023/01/17 11:43:09;;;;;;;15.00;6.40;;;;;;;11.98;53.10;99449.67;107669;1253;97716;-60
2023/01/17 11:45:40;;;;;;;16.50;7.10;;;;;;;11.94;52.87;99449.04;107660;1254;112278;-59
2023/01/17 11:48:09;;;;;;;14.10;6.40;;;;;;;11.90;53.67;99446.09;107603;1254;108956;-60
2023/01/17 11:51:03;;;;;;;16.20;6.90;;;;;;;11.96;53.44;99449.58;107554;1253;107901;-58
2023/01/17 11:53:35;;;;;;;14.00;6.30;;;;;;;11.99;53.68;99452.55;107570;1254;97853;-59
2023/01/17 11:56:06;;;;;;;15.90;6.00;;;;;;;12.04;53.45;99445.77;107605;1253;97865;-60
2023/01/17 11:58:39;;;;;;;19.00;8.80;;;;;;;12.05;53.53;99448.73;107583;1254;112084;-60
2023/01/17 12:01:14;;;;;;;14.70;6.20;;;;;;;12.04;53.92;99454.57;107663;1253;110079;-61
2023/01/17 12:04:20;;;;;;;23.80;6.60;;;;;;;12.01;53.44;99449.73;107567;1254;109183;-60
2023/01/17 12:06:59;;;;;;;12.20;6.30;;;;;;;11.96;53.58;99458.02;107564;1253;97906;-59
2023/01/17 12:09:53;;;;;;;13.60;6.30;;;;;;;11.90;53.57;99463.48;107664;1255;99043;-60
2023/01/17 12:15:36;;;;;;;16.30;6.10;;;;;;;11.79;53.97;99463.45;107629;1253;110007;-63
2023/01/17 12:18:11;;;;;;;10.40;5.90;;;;;;;11.78;54.08;99473.20;107691;1253;108195;-61
2023/01/17 12:21:12;;;;;;;11.20;6.00;;;;;;;11.75;54.18;99478.84;107661;1254;97822;-63
2023/01/17 12:23:59;;;;;;;13.30;6.50;;;;;;;11.67;54.90;99482.25;107595;1255;97892;-59
2023/01/17 12:26:34;;;;;;;14.30;6.70;;;;;;;11.63;55.39;99485.96;107632;1254;111547;-60
2023/01/17 12:29:20;;;;;;;10.90;7.40;;;;;;;11.60;56.03;99486.66;107617;1254;109749;-60
2023/01/17 12:32:13;;;;;;;19.70;7.70;;;;;;;11.57;55.89;99490.58;107621;1253;109467;-60
2023/01/17 12:35:10;;;;;;;15.50;7.00;;;;;;;11.53;56.05;99493.61;107667;1253;97941;-60
2023/01/17 12:37:43;;;;;;;13.50;7.50;;;;;;;11.45;56.42;99491.34;107652;1253;98408;-59
2023/01/17 12:40:26;;;;;;;19.10;8.20;;;;;;;11.41;56.22;99493.98;107630;1254;111442;-59
2023/01/17 12:43:34;;;;;;;11.70;7.20;;;;;;;11.37;56.53;99494.41;107505;1254;110871;-59
2023/01/17 12:46:27;;;;;;;15.50;7.10;;;;;;;11.35;57.00;99499.73;107559;1254;108697;-61
2023/01/17 12:49:23;;;;;;;13.70;7.80;;;;;;;11.33;57.21;99493.14;107520;1254;97861;-60
2023/01/17 12:52:24;;;;;;;18.40;9.50;;;;;;;11.31;57.42;99490.11;107304;1254;97909;-60
2023/01/17 12:55:01;;;;;;;22.60;11.00;;;;;;;11.31;57.79;99490.85;107601;1256;112427;-60
2023/01/17 12:57:44;;;;;;;18.10;10.60;;;;;;;11.32;57.92;99487.36;107564;1254;109735;-60
2023/01/17 13:00:19;;;;;;;19.50;10.80;;;;;;;11.32;57.96;99483.17;107567;1256;108419;-60
2023/01/17 13:02:54;;;;;;;18.00;10.50;;;;;;;11.31;58.25;99476.33;107564;1254;97831;-60